createdAt,value
2022-08-05T00:00:46.725Z,64.47
2022-08-05T00:03:17.382Z,65.52
2022-08-05T00:06:05.770Z,64.89
2022-08-05T00:08:35.113Z,65.50
2022-08-05T00:11:05.553Z,65.99
2022-08-05T00:13:53.065Z,65.72
2022-08-05T00:16:20.116Z,65.48
2022-08-05T00:19:04.509Z,65.48
2022-08-05T00:21:31.047Z,66.09
2022-08-05T00:24:09.926Z,66.64
2022-08-05T00:26:37.407Z,65.82
2022-08-05T00:29:03.959Z,66.00
2022-08-05T00:31:41.447Z,66.49
2022-08-05T00:34:54.485Z,66.42
2022-08-05T00:37:13.280Z,65.38
2022-08-05T00:39:57.509Z,64.88
2022-08-05T00:42:33.824Z,66.67
2022-08-05T00:45:01.151Z,66.13
2022-08-05T00:47:52.966Z,67.88
2022-08-05T00:50:14.691Z,66.71
2022-08-05T00:52:41.755Z,65.43
2022-08-05T00:55:12.442Z,65.90
2022-08-05T00:57:58.674Z,64.86
2022-08-05T01:00:27.698Z,64.86
2022-08-05T01:02:55.082Z,65.42
2022-08-05T01:05:21.995Z,65.34
2022-08-05T01:08:40.997Z,65.98
2022-08-05T01:10:56.090Z,65.90
2022-08-05T01:13:58.494Z,65.74
2022-08-05T01:16:53.446Z,67.03
2022-08-05T01:19:36.684Z,66.93
2022-08-05T01:22:45.325Z,66.47
2022-08-05T01:25:39.972Z,67.20
2022-08-05T01:28:23.413Z,67.16
2022-08-05T01:31:13.119Z,66.59
2022-08-05T01:33:49.234Z,66.97
2022-08-05T01:36:20.972Z,66.28
2022-08-05T01:38:49.886Z,65.81
2022-08-05T01:41:21.603Z,64.27
2022-08-05T01:43:51.073Z,64.14
2022-08-05T01:46:43.012Z,64.01
2022-08-05T01:49:23.181Z,62.16
2022-08-05T01:51:54.047Z,61.44
2022-08-05T01:54:25.544Z,62.53
2022-08-05T01:58:09.313Z,64.51
2022-08-05T01:59:47.039Z,64.14
2022-08-05T02:02:15.807Z,63.88
2022-08-05T02:04:46.279Z,62.32
2022-08-05T02:07:22.143Z,61.47
2022-08-05T02:09:50.897Z,61.43
2022-08-05T02:12:53.356Z,61.29
2022-08-05T02:15:31.199Z,62.93
2022-08-05T02:18:31.341Z,63.87
2022-08-05T02:21:06.457Z,64.38
2022-08-05T02:23:48.511Z,65.29
2022-08-05T02:26:22.041Z,66.04
2022-08-05T02:28:49.856Z,66.64
2022-08-05T02:31:26.801Z,65.77
2022-08-05T02:33:59.375Z,68.48
2022-08-05T02:36:31.157Z,67.50
2022-08-05T02:39:00.004Z,66.69
2022-08-05T02:41:42.914Z,66.47
2022-08-05T02:44:16.027Z,65.13
2022-08-05T02:46:58.702Z,64.65
2022-08-05T02:49:35.833Z,64.50
2022-08-05T02:52:04.834Z,64.43
2022-08-05T02:54:36.109Z,64.02
2022-08-05T02:57:10.304Z,64.25
2022-08-05T02:59:55.121Z,64.15
2022-08-05T03:02:27.425Z,63.66
2022-08-05T03:04:57.195Z,63.16
2022-08-05T03:08:01.089Z,63.80
2022-08-05T03:10:15.749Z,62.79
2022-08-05T03:12:51.905Z,62.21
2022-08-05T03:15:20.430Z,61.35
2022-08-05T03:17:46.970Z,61.35
2022-08-05T03:20:13.827Z,60.79
2022-08-05T03:22:44.271Z,60.39
2022-08-05T03:25:33.266Z,60.39
2022-08-05T03:28:08.253Z,60.43
2022-08-05T03:30:36.618Z,59.77
2022-08-05T03:33:05.800Z,59.69
2022-08-05T03:35:33.976Z,59.56
2022-08-05T03:38:07.262Z,60.66
2022-08-05T03:40:34.249Z,60.39
2022-08-05T03:43:58.814Z,59.57
2022-08-05T03:45:55.192Z,59.71
2022-08-05T03:48:27.439Z,59.57
2022-08-05T03:52:34.712Z,59.54
2022-08-05T03:55:50.442Z,59.98
2022-08-05T03:56:47.526Z,59.59
2022-08-05T03:59:29.210Z,60.69
2022-08-05T04:02:17.542Z,60.50
2022-08-05T04:05:04.193Z,60.21
2022-08-05T04:07:57.324Z,60.82
2022-08-05T04:10:32.038Z,60.77
2022-08-05T04:13:04.619Z,60.73
2022-08-05T04:15:32.836Z,61.00
2022-08-05T04:18:07.897Z,60.60
2022-08-05T04:20:37.062Z,61.15
2022-08-05T04:23:04.023Z,60.87
2022-08-05T04:25:57.460Z,61.13
2022-08-05T04:28:17.842Z,61.55
2022-08-05T04:30:45.358Z,61.73
2022-08-05T04:33:12.727Z,61.17
2022-08-05T04:36:10.879Z,61.58
2022-08-05T04:38:39.812Z,61.53
2022-08-05T04:41:09.377Z,61.16
2022-08-05T04:43:46.676Z,60.49
2022-08-05T04:46:27.789Z,60.58
2022-08-05T04:48:57.960Z,60.60
2022-08-05T04:51:25.469Z,59.93
2022-08-05T04:53:56.838Z,60.77
2022-08-05T04:56:34.628Z,60.63
2022-08-05T04:59:22.373Z,59.76
2022-08-05T05:02:07.455Z,60.51
2022-08-05T05:04:38.337Z,60.32
2022-08-05T05:07:10.545Z,60.03
2022-08-05T05:09:37.419Z,60.87
2022-08-05T05:12:05.181Z,60.75
2022-08-05T05:14:32.910Z,60.86
2022-08-05T05:17:03.292Z,60.67
2022-08-05T05:19:37.126Z,60.90
2022-08-05T05:22:24.193Z,60.87
2022-08-05T05:24:59.904Z,60.98
2022-08-05T05:27:45.421Z,60.84
2022-08-05T05:30:31.073Z,60.11
2022-08-05T05:33:09.436Z,60.29
2022-08-05T05:35:45.057Z,60.65
2022-08-05T05:38:13.354Z,61.64
2022-08-05T05:40:49.700Z,61.98
2022-08-05T05:43:57.268Z,62.24
2022-08-05T05:46:17.778Z,63.56
2022-08-05T05:48:48.396Z,63.17
2022-08-05T05:51:49.567Z,62.32
2022-08-05T05:54:17.098Z,63.16
2022-08-05T05:56:43.678Z,61.74
2022-08-05T05:59:10.394Z,62.23
2022-08-05T06:01:57.884Z,61.70
2022-08-05T06:04:24.991Z,60.31
2022-08-05T06:06:51.750Z,61.20
2022-08-05T06:09:24.730Z,61.22
2022-08-05T06:11:59.553Z,62.04
2022-08-05T06:14:29.644Z,62.20
2022-08-05T06:16:56.807Z,64.14
2022-08-05T06:19:33.876Z,62.69
2022-08-05T06:22:06.452Z,63.07
2022-08-05T06:24:34.746Z,63.02
2022-08-05T06:27:04.013Z,63.02
2022-08-05T06:29:49.021Z,62.88
2022-08-05T06:32:26.357Z,63.09
2022-08-05T06:34:58.226Z,62.36
2022-08-05T06:37:56.480Z,62.13
2022-08-05T06:40:18.467Z,62.63
2022-08-05T06:42:52.775Z,62.57
2022-08-05T06:45:44.594Z,61.74
2022-08-05T06:48:46.859Z,61.50
2022-08-05T06:50:57.044Z,61.08
2022-08-05T06:53:28.258Z,61.31
2022-08-05T06:55:58.237Z,61.52
2022-08-05T06:58:35.484Z,62.53
2022-08-05T07:01:06.025Z,62.35
2022-08-05T07:03:33.494Z,61.75
2022-08-05T07:06:06.045Z,62.79
2022-08-05T07:08:47.561Z,62.68
2022-08-05T07:11:15.884Z,62.27
2022-08-05T07:14:02.116Z,61.58
2022-08-05T07:17:59.526Z,61.25
2022-08-05T07:22:28.154Z,61.60
2022-08-05T07:24:58.356Z,61.44
2022-08-05T07:27:27.723Z,61.17
2022-08-05T07:30:28.172Z,61.37
2022-08-05T07:32:57.751Z,60.79
2022-08-05T07:36:02.709Z,60.68
2022-08-05T07:38:12.127Z,59.98
2022-08-05T07:40:39.175Z,59.69
2022-08-05T07:43:20.257Z,60.46
2022-08-05T07:45:56.724Z,60.33
2022-08-05T07:49:01.005Z,60.28
2022-08-05T07:51:23.369Z,60.45
2022-08-05T07:53:58.997Z,62.58
2022-08-05T07:56:59.930Z,61.47
2022-08-05T07:59:15.604Z,60.36
2022-08-05T08:01:52.047Z,59.02
2022-08-05T08:04:37.307Z,60.52
2022-08-05T08:07:07.412Z,60.36
2022-08-05T08:09:34.990Z,59.92
2022-08-05T08:12:07.764Z,61.14
2022-08-05T08:14:42.746Z,60.36
2022-08-05T08:17:15.955Z,60.65
2022-08-05T08:20:43.013Z,60.18
2022-08-05T08:22:32.241Z,60.60
2022-08-05T08:25:03.367Z,59.95
2022-08-05T08:27:40.445Z,59.67
2022-08-05T08:30:19.070Z,60.12
2022-08-05T08:32:53.874Z,61.13
2022-08-05T08:35:20.887Z,61.52
2022-08-05T08:37:53.639Z,61.19
2022-08-05T08:40:23.866Z,61.65
2022-08-05T08:42:53.415Z,61.27
2022-08-05T08:45:27.198Z,61.64
2022-08-05T08:48:11.767Z,61.81
2022-08-05T08:51:07.560Z,62.18
2022-08-05T08:53:35.341Z,61.24
2022-08-05T08:56:06.092Z,60.95
2022-08-05T08:58:43.475Z,61.68
2022-08-05T09:01:16.483Z,60.32
2022-08-05T09:03:47.468Z,60.18
2022-08-05T09:06:18.623Z,60.77
2022-08-05T09:08:47.865Z,60.55
2022-08-05T09:11:15.293Z,59.93
2022-08-05T09:14:09.089Z,59.93
2022-08-05T09:16:29.731Z,60.76
2022-08-05T09:18:56.423Z,60.30
2022-08-05T09:22:22.997Z,60.55
2022-08-05T09:24:15.635Z,60.65
2022-08-05T09:26:46.143Z,61.11
2022-08-05T09:29:16.299Z,61.45
2022-08-05T09:32:41.178Z,61.47
2022-08-05T09:34:55.951Z,61.17
2022-08-05T09:38:16.594Z,61.64
2022-08-05T09:40:32.579Z,62.24
2022-08-05T09:43:01.111Z,62.25
2022-08-05T09:46:07.853Z,61.46
2022-08-05T09:48:31.305Z,61.65
2022-08-05T09:51:01.159Z,61.30
2022-08-05T09:53:53.122Z,60.89
2022-08-05T09:56:25.976Z,59.43
2022-08-05T09:58:57.305Z,59.60
2022-08-05T10:01:31.841Z,60.68
2022-08-05T10:04:10.671Z,60.11
2022-08-05T10:06:54.622Z,60.72
2022-08-05T10:09:27.255Z,61.71
2022-08-05T10:12:31.403Z,63.06
2022-08-05T10:15:13.889Z,61.24
2022-08-05T10:17:47.426Z,61.02
2022-08-05T10:20:23.796Z,60.12
2022-08-05T10:22:52.343Z,60.95
2022-08-05T10:25:19.484Z,59.98
2022-08-05T10:28:13.774Z,59.96
2022-08-05T10:31:20.945Z,59.64
2022-08-05T10:33:25.572Z,60.56
2022-08-05T10:35:59.185Z,60.70
2022-08-05T10:38:28.537Z,60.66
2022-08-05T10:41:23.203Z,60.73
2022-08-05T10:44:01.633Z,60.13
2022-08-05T10:46:46.942Z,59.23
2022-08-05T10:49:18.654Z,58.84
2022-08-05T10:52:00.458Z,59.86
2022-08-05T10:55:02.911Z,59.48
2022-08-05T10:57:34.028Z,59.45
2022-08-05T11:00:20.407Z,60.75
2022-08-05T11:02:59.141Z,60.39
2022-08-05T11:06:03.786Z,60.11
2022-08-05T11:08:38.161Z,59.67
2022-08-05T11:11:44.403Z,60.28
2022-08-05T11:14:13.023Z,59.79
2022-08-05T11:16:56.134Z,60.73
2022-08-05T11:20:11.182Z,61.14
2022-08-05T11:22:50.066Z,59.43
2022-08-05T11:26:04.382Z,59.71
2022-08-05T11:28:18.906Z,59.85
2022-08-05T11:30:58.285Z,59.74
2022-08-05T11:33:48.375Z,59.13
2022-08-05T11:36:33.914Z,58.94
2022-08-05T11:39:01.596Z,58.47
2022-08-05T11:41:56.477Z,57.76
2022-08-05T11:44:40.139Z,56.26
2022-08-05T11:47:14.224Z,58.37
2022-08-05T11:49:50.974Z,59.38
2022-08-05T11:52:29.022Z,57.61
2022-08-05T11:54:58.094Z,57.75
2022-08-05T11:57:30.647Z,58.86
2022-08-05T12:00:27.570Z,59.54
2022-08-05T12:02:56.566Z,59.62
2022-08-05T12:05:36.164Z,59.54
2022-08-05T12:08:10.804Z,59.78
2022-08-05T12:10:45.147Z,58.75
2022-08-05T12:13:16.748Z,58.81
2022-08-05T12:15:45.425Z,59.41
2022-08-05T12:18:20.586Z,58.50
2022-08-05T12:20:50.775Z,58.39
2022-08-05T12:23:17.331Z,57.56
2022-08-05T12:25:56.851Z,57.78
2022-08-05T12:28:34.691Z,56.23
2022-08-05T12:31:03.919Z,57.28
2022-08-05T12:33:36.759Z,58.79
2022-08-05T12:36:08.259Z,56.74
2022-08-05T12:38:39.709Z,57.64
2022-08-05T12:41:13.083Z,56.41
2022-08-05T12:43:58.700Z,55.48
2022-08-05T12:46:32.734Z,56.00
2022-08-05T12:49:13.480Z,55.46
2022-08-05T12:52:12.755Z,54.63
2022-08-05T12:54:37.151Z,56.19
2022-08-05T12:57:09.182Z,54.47
2022-08-05T13:01:57.958Z,53.90
2022-08-05T13:02:40.832Z,53.63
2022-08-05T13:05:12.486Z,53.11
2022-08-05T13:08:00.590Z,52.02
2022-08-05T13:10:30.986Z,56.87
2022-08-05T13:12:58.436Z,54.70
2022-08-05T13:15:35.883Z,50.96
2022-08-05T13:18:19.607Z,52.76
2022-08-05T13:20:49.223Z,52.29
2022-08-05T13:23:18.025Z,52.69
2022-08-05T13:25:52.365Z,52.02
2022-08-05T13:28:27.626Z,50.77
2022-08-05T13:30:54.196Z,52.66
2022-08-05T13:34:22.766Z,53.00
2022-08-05T13:36:09.105Z,50.78
2022-08-05T13:38:42.369Z,51.95
2022-08-05T13:41:11.279Z,51.92
2022-08-05T13:43:44.246Z,51.09
2022-08-05T13:46:13.164Z,52.28
2022-08-05T13:48:57.244Z,51.39
2022-08-05T13:51:29.314Z,50.89
2022-08-05T13:54:03.407Z,50.88
2022-08-05T13:56:45.228Z,49.85
2022-08-05T13:59:21.402Z,48.80
2022-08-05T14:01:58.747Z,49.92
2022-08-05T14:04:51.473Z,49.86
2022-08-05T14:07:55.503Z,49.14
2022-08-05T14:10:13.422Z,48.90
2022-08-05T14:12:42.727Z,49.32
2022-08-05T14:16:06.275Z,50.48
2022-08-05T14:17:59.479Z,50.20
2022-08-05T14:20:27.654Z,50.49
2022-08-05T14:22:54.675Z,50.05
2022-08-05T14:25:22.765Z,49.91
2022-08-05T14:27:55.667Z,49.42
2022-08-05T14:30:22.641Z,50.06
2022-08-05T14:32:52.954Z,49.44
2022-08-05T14:35:20.755Z,49.86
2022-08-05T14:37:53.591Z,49.74
2022-08-05T14:40:24.563Z,49.62
2022-08-05T14:42:51.817Z,48.86
2022-08-05T14:45:18.838Z,49.51
2022-08-05T14:48:03.183Z,50.95
2022-08-05T14:50:33.468Z,49.38
2022-08-05T14:53:06.733Z,48.83
2022-08-05T14:55:39.008Z,49.79
2022-08-05T14:58:10.841Z,49.91
2022-08-05T15:00:57.899Z,47.97
2022-08-05T15:03:26.126Z,47.62
2022-08-05T15:06:07.591Z,47.60
2022-08-05T15:09:01.059Z,49.32
2022-08-05T15:11:52.831Z,50.64
2022-08-05T15:14:33.396Z,49.39
2022-08-05T15:16:59.621Z,49.47
2022-08-05T15:19:26.521Z,49.14
2022-08-05T15:21:53.274Z,49.81
2022-08-05T15:24:24.832Z,50.36
2022-08-05T15:26:51.373Z,49.49
2022-08-05T15:29:18.513Z,50.68
2022-08-05T15:31:49.750Z,51.83
2022-08-05T15:34:32.141Z,51.12
2022-08-05T15:37:03.489Z,49.99
2022-08-05T15:41:03.016Z,50.77
2022-08-05T15:42:50.301Z,50.50
2022-08-05T15:45:09.876Z,51.24
2022-08-05T15:47:37.146Z,51.55
2022-08-05T15:50:07.256Z,51.94
2022-08-05T15:52:53.774Z,50.87
2022-08-05T15:55:24.501Z,51.55
2022-08-05T15:57:52.130Z,49.36
2022-08-05T16:00:26.229Z,50.12
2022-08-05T16:03:00.461Z,48.31
2022-08-05T16:05:28.156Z,48.32
2022-08-05T16:07:55.179Z,49.66
2022-08-05T16:10:25.615Z,49.52
2022-08-05T16:12:53.772Z,48.43
2022-08-05T16:15:23.468Z,46.10
2022-08-05T16:17:57.725Z,46.11
2022-08-05T16:20:25.355Z,46.36
2022-08-05T16:22:51.914Z,45.48
2022-08-05T16:25:18.739Z,44.83
2022-08-05T16:28:00.744Z,45.83
2022-08-05T16:30:33.385Z,44.42
2022-08-05T16:33:00.951Z,43.91
2022-08-05T16:35:32.443Z,43.16
2022-08-05T16:38:14.919Z,43.34
2022-08-05T16:40:47.876Z,42.02
2022-08-05T16:43:24.037Z,40.67
2022-08-05T16:46:03.790Z,40.71
2022-08-05T16:48:36.232Z,44.13
2022-08-05T16:51:08.806Z,43.35
2022-08-05T16:54:05.063Z,43.27
2022-08-05T16:56:26.111Z,43.74
2022-08-05T16:58:52.734Z,43.64
2022-08-05T17:01:20.100Z,43.61
2022-08-05T17:03:47.359Z,43.52
2022-08-05T17:06:16.527Z,42.71
2022-08-05T17:08:53.881Z,42.79
2022-08-05T17:11:23.833Z,41.68
2022-08-05T17:14:00.237Z,41.99
2022-08-05T17:16:36.533Z,43.33
2022-08-05T17:19:07.768Z,42.19
2022-08-05T17:21:37.759Z,42.55
2022-08-05T17:24:28.038Z,43.44
2022-08-05T17:26:56.255Z,44.48
2022-08-05T17:29:33.682Z,44.91
2022-08-05T17:32:17.297Z,44.10
2022-08-05T17:34:47.531Z,44.70
2022-08-05T17:37:39.377Z,43.98
2022-08-05T17:40:05.979Z,44.88
2022-08-05T17:42:41.591Z,44.88
2022-08-05T17:45:20.287Z,44.49
2022-08-05T17:47:52.915Z,45.98
2022-08-05T17:50:27.605Z,45.65
2022-08-05T17:52:56.155Z,44.83
2022-08-05T17:55:27.392Z,46.13
2022-08-05T17:58:02.180Z,46.48
2022-08-05T18:00:29.355Z,44.91
2022-08-05T18:02:56.226Z,46.61
2022-08-05T18:05:23.820Z,46.01
2022-08-05T18:07:55.218Z,47.06
2022-08-05T18:10:23.515Z,47.42
2022-08-05T18:12:50.102Z,46.76
2022-08-05T18:15:16.693Z,47.91
2022-08-05T18:18:00.240Z,46.83
2022-08-05T18:20:32.115Z,46.05
2022-08-05T18:23:11.432Z,47.15
2022-08-05T18:25:44.830Z,47.12
2022-08-05T18:28:12.310Z,47.67
2022-08-05T18:30:50.925Z,48.18
2022-08-05T18:33:22.513Z,48.26
2022-08-05T18:36:03.629Z,47.19
2022-08-05T18:38:36.553Z,47.51
2022-08-05T18:41:54.958Z,47.85
2022-08-05T18:43:51.843Z,47.83
2022-08-05T18:46:20.194Z,48.00
2022-08-05T18:48:52.678Z,47.64
2022-08-05T18:52:04.358Z,47.74
2022-08-05T18:54:28.418Z,47.35
2022-08-05T18:57:01.727Z,48.48
2022-08-05T18:59:44.357Z,47.71
2022-08-05T19:02:28.183Z,47.79
2022-08-05T19:05:03.221Z,48.09
2022-08-05T19:07:45.557Z,48.12
2022-08-05T19:10:18.663Z,47.78
2022-08-05T19:12:53.259Z,48.58
2022-08-05T19:15:57.468Z,48.88
2022-08-05T19:18:09.365Z,49.14
2022-08-05T19:20:41.440Z,48.54
2022-08-05T19:24:03.843Z,48.79
2022-08-05T19:26:02.203Z,48.55
2022-08-05T19:28:33.614Z,49.54
2022-08-05T19:31:01.095Z,49.10
2022-08-05T19:33:35.923Z,49.80
2022-08-05T19:36:07.082Z,49.04
2022-08-05T19:38:35.562Z,48.62
2022-08-05T19:41:07.080Z,48.69
2022-08-05T19:44:06.580Z,48.86
2022-08-05T19:46:29.251Z,48.69
2022-08-05T19:49:00.845Z,48.71
2022-08-05T19:52:09.260Z,49.15
2022-08-05T19:54:25.381Z,48.77
2022-08-05T19:56:58.482Z,49.30
2022-08-05T20:00:00.784Z,49.45
2022-08-05T20:02:12.635Z,49.19
2022-08-05T20:04:42.879Z,49.20
2022-08-05T20:07:10.435Z,49.45
2022-08-05T20:09:54.361Z,49.86
2022-08-05T20:12:24.086Z,49.64
2022-08-05T20:14:52.866Z,50.16
2022-08-05T20:17:23.276Z,50.67
2022-08-05T20:19:56.723Z,49.92
2022-08-05T20:22:26.780Z,50.26
2022-08-05T20:24:55.289Z,50.30
2022-08-05T20:27:26.408Z,49.93
2022-08-05T20:29:58.236Z,50.39
2022-08-05T20:32:27.436Z,51.36
2022-08-05T20:34:54.646Z,51.23
2022-08-05T20:38:04.573Z,51.09
2022-08-05T20:40:08.899Z,50.93
2022-08-05T20:42:35.671Z,51.15
2022-08-05T20:45:03.392Z,51.54
2022-08-05T20:47:31.796Z,51.45
2022-08-05T20:49:59.529Z,51.90
2022-08-05T20:52:28.443Z,52.09
2022-08-05T20:55:15.925Z,51.63
2022-08-05T20:57:44.521Z,52.16
2022-08-05T21:00:40.502Z,51.72
2022-08-05T21:03:07.169Z,52.47
2022-08-05T21:05:48.392Z,52.23
2022-08-05T21:08:21.076Z,52.46
2022-08-05T21:10:53.625Z,52.58
2022-08-05T21:13:26.354Z,52.54
2022-08-05T21:16:07.329Z,52.60
2022-08-05T21:18:34.285Z,52.44
2022-08-05T21:21:02.586Z,52.82
2022-08-05T21:23:29.132Z,52.70
2022-08-05T21:26:04.200Z,52.65
2022-08-05T21:28:40.103Z,52.57
2022-08-05T21:31:14.291Z,53.14
2022-08-05T21:33:43.216Z,52.40
2022-08-05T21:36:14.154Z,52.70
2022-08-05T21:38:54.763Z,52.72
2022-08-05T21:41:21.733Z,52.92
2022-08-05T21:43:50.707Z,53.28
2022-08-05T21:46:28.033Z,53.38
2022-08-05T21:48:56.794Z,53.49
2022-08-05T21:52:21.434Z,53.32
2022-08-05T21:54:12.905Z,53.54
2022-08-05T21:56:44.451Z,53.55
2022-08-05T21:59:22.557Z,53.92
2022-08-05T22:01:54.386Z,53.82
2022-08-05T22:04:25.485Z,54.07
2022-08-05T22:06:52.832Z,54.37
2022-08-05T22:09:21.077Z,54.23
2022-08-05T22:11:48.950Z,54.19
2022-08-05T22:14:37.214Z,55.42
2022-08-05T22:17:06.667Z,54.39
2022-08-05T22:20:00.644Z,54.57
2022-08-05T22:22:27.686Z,54.65
2022-08-05T22:25:18.237Z,54.80
2022-08-05T22:28:05.061Z,54.65
2022-08-05T22:30:56.439Z,54.75
2022-08-05T22:33:57.694Z,54.88
2022-08-05T22:36:15.431Z,54.75
2022-08-05T22:38:47.927Z,54.82
2022-08-05T22:41:16.585Z,54.71
2022-08-05T22:44:03.210Z,55.23
2022-08-05T22:46:29.757Z,55.12
2022-08-05T22:48:56.567Z,55.30
2022-08-05T22:52:04.311Z,55.10
2022-08-05T22:54:09.850Z,55.49
2022-08-05T22:56:36.424Z,55.80
2022-08-05T22:59:45.803Z,55.52
2022-08-05T23:02:06.271Z,55.58
2022-08-05T23:04:34.722Z,55.91
2022-08-05T23:07:02.988Z,55.84
2022-08-05T23:09:58.256Z,56.14
2022-08-05T23:12:17.908Z,56.11
2022-08-05T23:14:44.630Z,55.96
2022-08-05T23:17:34.568Z,56.29
2022-08-05T23:20:16.290Z,55.61
2022-08-05T23:22:47.606Z,55.81
2022-08-05T23:25:17.067Z,55.63
2022-08-05T23:28:03.741Z,55.51
2022-08-05T23:30:40.515Z,55.65
2022-08-05T23:33:22.593Z,55.70
2022-08-05T23:35:57.515Z,55.54
2022-08-05T23:38:24.446Z,55.74
2022-08-05T23:40:52.618Z,56.03
2022-08-05T23:43:25.369Z,55.98
2022-08-05T23:46:20.395Z,55.93
2022-08-05T23:49:00.866Z,55.73
2022-08-05T23:51:53.496Z,55.85
2022-08-05T23:54:25.167Z,55.87
2022-08-05T23:57:03.849Z,55.80
